sensor_id;sensor_type;location;lat;lon;timestamp;P1;durP1;ratioP1;P2;durP2;ratioP2
48813;SDS011;34634;44.108;3.074;2023-03-01T00:01:08;13.65;;;9.60;;
48813;SDS011;34634;44.108;3.074;2023-03-01T00:03:34;15.30;;;10.10;;
48813;SDS011;34634;44.108;3.074;2023-03-01T00:06:01;12.48;;;9.32;;
48813;SDS011;34634;44.108;3.074;2023-03-01T00:08:27;13.73;;;10.00;;
48813;SDS011;34634;44.108;3.074;2023-03-01T00:13:27;14.43;;;9.60;;
48813;SDS011;34634;44.108;3.074;2023-03-01T00:15:54;13.65;;;9.50;;
48813;SDS011;34634;44.108;3.074;2023-03-01T00:18:20;14.00;;;9.70;;
48813;SDS011;34634;44.108;3.074;2023-03-01T00:20:54;15.02;;;10.30;;
48813;SDS011;34634;44.108;3.074;2023-03-01T00:23:20;13.48;;;9.93;;
48813;SDS011;34634;44.108;3.074;2023-03-01T00:25:46;13.68;;;10.15;;
48813;SDS011;34634;44.108;3.074;2023-03-01T00:28:13;13.32;;;9.88;;
48813;SDS011;34634;44.108;3.074;2023-03-01T00:30:39;16.48;;;10.30;;
48813;SDS011;34634;44.108;3.074;2023-03-01T00:33:06;17.73;;;10.48;;
48813;SDS011;34634;44.108;3.074;2023-03-01T00:35:33;15.70;;;11.05;;
48813;SDS011;34634;44.108;3.074;2023-03-01T00:37:59;26.70;;;15.50;;
48813;SDS011;34634;44.108;3.074;2023-03-01T00:40:28;31.50;;;15.25;;
48813;SDS011;34634;44.108;3.074;2023-03-01T00:42:55;17.05;;;10.77;;
48813;SDS011;34634;44.108;3.074;2023-03-01T00:45:21;14.43;;;9.23;;
48813;SDS011;34634;44.108;3.074;2023-03-01T00:47:48;13.75;;;9.13;;
48813;SDS011;34634;44.108;3.074;2023-03-01T00:50:14;15.65;;;10.13;;
48813;SDS011;34634;44.108;3.074;2023-03-01T00:52:41;18.17;;;11.15;;
48813;SDS011;34634;44.108;3.074;2023-03-01T00:55:07;19.60;;;12.48;;
48813;SDS011;34634;44.108;3.074;2023-03-01T00:57:34;18.92;;;12.90;;
48813;SDS011;34634;44.108;3.074;2023-03-01T01:00:00;15.95;;;11.27;;
48813;SDS011;34634;44.108;3.074;2023-03-01T01:02:26;19.23;;;10.75;;
48813;SDS011;34634;44.108;3.074;2023-03-01T01:04:52;17.63;;;11.52;;
48813;SDS011;34634;44.108;3.074;2023-03-01T01:07:19;19.25;;;12.65;;
48813;SDS011;34634;44.108;3.074;2023-03-01T01:09:45;19.20;;;11.77;;
48813;SDS011;34634;44.108;3.074;2023-03-01T01:12:12;20.25;;;12.40;;
48813;SDS011;34634;44.108;3.074;2023-03-01T01:14:38;20.67;;;12.38;;
48813;SDS011;34634;44.108;3.074;2023-03-01T01:17:04;21.20;;;12.90;;
48813;SDS011;34634;44.108;3.074;2023-03-01T01:19:31;22.25;;;13.40;;
48813;SDS011;34634;44.108;3.074;2023-03-01T01:21:57;17.08;;;11.82;;
48813;SDS011;34634;44.108;3.074;2023-03-01T01:24:23;15.40;;;10.45;;
48813;SDS011;34634;44.108;3.074;2023-03-01T01:26:49;17.92;;;11.45;;
48813;SDS011;34634;44.108;3.074;2023-03-01T01:29:16;16.08;;;10.68;;
48813;SDS011;34634;44.108;3.074;2023-03-01T01:31:42;13.85;;;10.55;;
48813;SDS011;34634;44.108;3.074;2023-03-01T01:34:12;13.98;;;10.15;;
48813;SDS011;34634;44.108;3.074;2023-03-01T01:36:39;18.37;;;11.00;;
48813;SDS011;34634;44.108;3.074;2023-03-01T01:39:05;16.95;;;10.52;;
48813;SDS011;34634;44.108;3.074;2023-03-01T01:41:32;15.00;;;10.50;;
48813;SDS011;34634;44.108;3.074;2023-03-01T01:46:54;17.70;;;9.90;;
48813;SDS011;34634;44.108;3.074;2023-03-01T01:49:25;13.82;;;9.98;;
48813;SDS011;34634;44.108;3.074;2023-03-01T01:51:58;15.35;;;9.75;;
48813;SDS011;34634;44.108;3.074;2023-03-01T01:54:37;12.65;;;9.52;;
48813;SDS011;34634;44.108;3.074;2023-03-01T01:57:06;14.30;;;10.82;;
48813;SDS011;34634;44.108;3.074;2023-03-01T01:59:33;16.67;;;10.50;;
48813;SDS011;34634;44.108;3.074;2023-03-01T02:02:00;15.45;;;10.48;;
48813;SDS011;34634;44.108;3.074;2023-03-01T02:04:28;15.00;;;10.50;;
48813;SDS011;34634;44.108;3.074;2023-03-01T02:06:59;16.23;;;10.27;;
48813;SDS011;34634;44.108;3.074;2023-03-01T02:09:27;17.80;;;10.70;;
48813;SDS011;34634;44.108;3.074;2023-03-01T02:11:53;16.33;;;10.38;;
48813;SDS011;34634;44.108;3.074;2023-03-01T02:14:20;17.25;;;10.30;;
48813;SDS011;34634;44.108;3.074;2023-03-01T02:16:46;15.85;;;11.13;;
48813;SDS011;34634;44.108;3.074;2023-03-01T02:19:18;15.48;;;10.52;;
48813;SDS011;34634;44.108;3.074;2023-03-01T02:24:57;14.98;;;10.10;;
48813;SDS011;34634;44.108;3.074;2023-03-01T02:27:02;14.40;;;10.00;;
48813;SDS011;34634;44.108;3.074;2023-03-01T02:29:29;14.35;;;10.63;;
48813;SDS011;34634;44.108;3.074;2023-03-01T02:31:56;15.13;;;9.95;;
48813;SDS011;34634;44.108;3.074;2023-03-01T02:34:24;17.20;;;11.25;;
48813;SDS011;34634;44.108;3.074;2023-03-01T02:37:13;13.25;;;9.73;;
48813;SDS011;34634;44.108;3.074;2023-03-01T02:39:39;17.00;;;10.93;;
48813;SDS011;34634;44.108;3.074;2023-03-01T02:42:08;14.07;;;10.52;;
48813;SDS011;34634;44.108;3.074;2023-03-01T02:44:35;15.68;;;9.77;;
48813;SDS011;34634;44.108;3.074;2023-03-01T02:47:02;12.63;;;9.40;;
48813;SDS011;34634;44.108;3.074;2023-03-01T02:49:30;12.63;;;10.15;;
48813;SDS011;34634;44.108;3.074;2023-03-01T02:54:49;12.88;;;9.50;;
48813;SDS011;34634;44.108;3.074;2023-03-01T02:57:18;12.40;;;10.02;;
48813;SDS011;34634;44.108;3.074;2023-03-01T02:59:44;17.38;;;10.25;;
48813;SDS011;34634;44.108;3.074;2023-03-01T03:02:22;16.55;;;9.77;;
48813;SDS011;34634;44.108;3.074;2023-03-01T03:07:34;13.90;;;10.07;;
48813;SDS011;34634;44.108;3.074;2023-03-01T03:10:01;20.40;;;10.70;;
48813;SDS011;34634;44.108;3.074;2023-03-01T03:12:28;16.40;;;10.68;;
48813;SDS011;34634;44.108;3.074;2023-03-01T03:14:54;13.52;;;9.98;;
48813;SDS011;34634;44.108;3.074;2023-03-01T03:17:20;16.52;;;10.65;;
48813;SDS011;34634;44.108;3.074;2023-03-01T03:19:47;14.07;;;9.55;;
48813;SDS011;34634;44.108;3.074;2023-03-01T03:22:13;13.57;;;9.65;;
48813;SDS011;34634;44.108;3.074;2023-03-01T03:24:39;14.02;;;9.85;;
48813;SDS011;34634;44.108;3.074;2023-03-01T03:27:06;13.90;;;10.18;;
48813;SDS011;34634;44.108;3.074;2023-03-01T03:29:33;14.93;;;10.43;;
48813;SDS011;34634;44.108;3.074;2023-03-01T03:31:59;14.82;;;10.38;;
48813;SDS011;34634;44.108;3.074;2023-03-01T03:34:25;16.30;;;10.63;;
48813;SDS011;34634;44.108;3.074;2023-03-01T03:36:55;14.45;;;10.15;;
48813;SDS011;34634;44.108;3.074;2023-03-01T03:39:25;12.95;;;10.05;;
48813;SDS011;34634;44.108;3.074;2023-03-01T03:41:52;15.52;;;10.35;;
48813;SDS011;34634;44.108;3.074;2023-03-01T03:44:19;15.30;;;9.95;;
48813;SDS011;34634;44.108;3.074;2023-03-01T03:46:45;16.35;;;10.30;;
48813;SDS011;34634;44.108;3.074;2023-03-01T03:49:11;14.70;;;9.90;;
48813;SDS011;34634;44.108;3.074;2023-03-01T03:51:38;14.77;;;10.60;;
48813;SDS011;34634;44.108;3.074;2023-03-01T03:54:04;14.68;;;10.25;;
48813;SDS011;34634;44.108;3.074;2023-03-01T03:56:30;14.68;;;10.25;;
48813;SDS011;34634;44.108;3.074;2023-03-01T03:58:57;20.15;;;10.38;;
48813;SDS011;34634;44.108;3.074;2023-03-01T04:01:23;15.38;;;9.75;;
48813;SDS011;34634;44.108;3.074;2023-03-01T04:03:50;16.73;;;10.45;;
48813;SDS011;34634;44.108;3.074;2023-03-01T04:06:19;16.98;;;10.43;;
48813;SDS011;34634;44.108;3.074;2023-03-01T04:08:46;12.93;;;9.48;;
48813;SDS011;34634;44.108;3.074;2023-03-01T04:11:16;13.18;;;9.27;;
48813;SDS011;34634;44.108;3.074;2023-03-01T04:13:52;13.77;;;10.13;;
48813;SDS011;34634;44.108;3.074;2023-03-01T04:16:19;15.23;;;10.18;;
48813;SDS011;34634;44.108;3.074;2023-03-01T04:18:45;14.10;;;10.52;;
48813;SDS011;34634;44.108;3.074;2023-03-01T04:21:12;15.48;;;9.82;;
48813;SDS011;34634;44.108;3.074;2023-03-01T04:23:39;13.68;;;10.52;;
48813;SDS011;34634;44.108;3.074;2023-03-01T04:26:06;16.35;;;9.98;;
48813;SDS011;34634;44.108;3.074;2023-03-01T04:28:34;14.25;;;10.43;;
48813;SDS011;34634;44.108;3.074;2023-03-01T04:31:11;13.63;;;9.90;;
48813;SDS011;34634;44.108;3.074;2023-03-01T04:33:48;12.30;;;9.18;;
48813;SDS011;34634;44.108;3.074;2023-03-01T04:36:15;17.00;;;10.25;;
48813;SDS011;34634;44.108;3.074;2023-03-01T04:38:41;14.02;;;10.02;;
48813;SDS011;34634;44.108;3.074;2023-03-01T04:41:12;16.05;;;10.68;;
48813;SDS011;34634;44.108;3.074;2023-03-01T04:43:39;15.65;;;10.05;;
48813;SDS011;34634;44.108;3.074;2023-03-01T04:46:07;14.77;;;10.35;;
48813;SDS011;34634;44.108;3.074;2023-03-01T04:48:35;17.50;;;10.80;;
48813;SDS011;34634;44.108;3.074;2023-03-01T04:51:02;15.82;;;10.80;;
48813;SDS011;34634;44.108;3.074;2023-03-01T04:53:28;16.23;;;11.35;;
48813;SDS011;34634;44.108;3.074;2023-03-01T04:55:55;14.88;;;10.95;;
48813;SDS011;34634;44.108;3.074;2023-03-01T04:58:27;17.10;;;10.82;;
48813;SDS011;34634;44.108;3.074;2023-03-01T05:00:54;17.08;;;11.55;;
48813;SDS011;34634;44.108;3.074;2023-03-01T05:03:20;22.85;;;13.65;;
48813;SDS011;34634;44.108;3.074;2023-03-01T05:05:47;22.83;;;14.80;;
48813;SDS011;34634;44.108;3.074;2023-03-01T05:08:14;22.08;;;12.70;;
48813;SDS011;34634;44.108;3.074;2023-03-01T05:10:44;19.55;;;11.50;;
48813;SDS011;34634;44.108;3.074;2023-03-01T05:13:11;16.55;;;11.32;;
48813;SDS011;34634;44.108;3.074;2023-03-01T05:15:46;16.23;;;11.05;;
48813;SDS011;34634;44.108;3.074;2023-03-01T05:18:13;17.20;;;10.73;;
48813;SDS011;34634;44.108;3.074;2023-03-01T05:20:40;15.43;;;10.40;;
48813;SDS011;34634;44.108;3.074;2023-03-01T05:23:06;16.35;;;11.07;;
48813;SDS011;34634;44.108;3.074;2023-03-01T05:25:33;15.88;;;10.45;;
48813;SDS011;34634;44.108;3.074;2023-03-01T05:28:00;16.85;;;10.15;;
48813;SDS011;34634;44.108;3.074;2023-03-01T05:30:30;15.15;;;11.10;;
48813;SDS011;34634;44.108;3.074;2023-03-01T05:32:56;16.98;;;10.60;;
48813;SDS011;34634;44.108;3.074;2023-03-01T05:35:23;15.02;;;10.57;;
48813;SDS011;34634;44.108;3.074;2023-03-01T05:37:50;15.30;;;10.70;;
48813;SDS011;34634;44.108;3.074;2023-03-01T05:40:18;13.45;;;10.15;;
48813;SDS011;34634;44.108;3.074;2023-03-01T05:42:45;17.13;;;11.15;;
48813;SDS011;34634;44.108;3.074;2023-03-01T05:45:12;15.73;;;11.45;;
48813;SDS011;34634;44.108;3.074;2023-03-01T05:47:39;39.13;;;29.63;;
48813;SDS011;34634;44.108;3.074;2023-03-01T05:50:13;19.77;;;14.35;;
48813;SDS011;34634;44.108;3.074;2023-03-01T05:52:43;15.98;;;11.52;;
48813;SDS011;34634;44.108;3.074;2023-03-01T05:55:10;17.92;;;10.95;;
48813;SDS011;34634;44.108;3.074;2023-03-01T05:57:36;17.50;;;10.80;;
48813;SDS011;34634;44.108;3.074;2023-03-01T06:00:02;15.63;;;11.43;;
48813;SDS011;34634;44.108;3.074;2023-03-01T06:02:29;18.40;;;11.40;;
48813;SDS011;34634;44.108;3.074;2023-03-01T06:04:55;16.92;;;11.00;;
48813;SDS011;34634;44.108;3.074;2023-03-01T06:07:21;14.38;;;10.98;;
48813;SDS011;34634;44.108;3.074;2023-03-01T06:09:48;13.65;;;10.70;;
48813;SDS011;34634;44.108;3.074;2023-03-01T06:12:14;18.58;;;11.52;;
48813;SDS011;34634;44.108;3.074;2023-03-01T06:14:40;16.42;;;11.45;;
48813;SDS011;34634;44.108;3.074;2023-03-01T06:17:07;18.08;;;12.25;;
48813;SDS011;34634;44.108;3.074;2023-03-01T06:19:33;18.75;;;12.57;;
48813;SDS011;34634;44.108;3.074;2023-03-01T06:21:59;15.55;;;11.23;;
48813;SDS011;34634;44.108;3.074;2023-03-01T06:24:25;17.70;;;11.85;;
48813;SDS011;34634;44.108;3.074;2023-03-01T06:26:54;15.75;;;11.30;;
48813;SDS011;34634;44.108;3.074;2023-03-01T06:29:21;19.20;;;12.05;;
48813;SDS011;34634;44.108;3.074;2023-03-01T06:31:48;16.73;;;11.90;;
48813;SDS011;34634;44.108;3.074;2023-03-01T06:34:14;18.13;;;12.55;;
48813;SDS011;34634;44.108;3.074;2023-03-01T06:36:41;20.27;;;13.60;;
48813;SDS011;34634;44.108;3.074;2023-03-01T06:39:07;39.30;;;19.30;;
48813;SDS011;34634;44.108;3.074;2023-03-01T06:41:34;20.80;;;13.20;;
48813;SDS011;34634;44.108;3.074;2023-03-01T06:44:00;17.33;;;11.63;;
48813;SDS011;34634;44.108;3.074;2023-03-01T06:46:27;20.63;;;13.00;;
48813;SDS011;34634;44.108;3.074;2023-03-01T06:48:54;18.70;;;12.20;;
48813;SDS011;34634;44.108;3.074;2023-03-01T06:51:20;19.65;;;12.63;;
48813;SDS011;34634;44.108;3.074;2023-03-01T06:53:46;18.25;;;12.25;;
48813;SDS011;34634;44.108;3.074;2023-03-01T06:56:13;21.02;;;12.93;;
48813;SDS011;34634;44.108;3.074;2023-03-01T06:58:39;25.50;;;15.82;;
48813;SDS011;34634;44.108;3.074;2023-03-01T07:01:06;26.08;;;16.63;;
48813;SDS011;34634;44.108;3.074;2023-03-01T07:03:33;26.00;;;14.95;;
48813;SDS011;34634;44.108;3.074;2023-03-01T07:05:59;27.75;;;17.10;;
48813;SDS011;34634;44.108;3.074;2023-03-01T07:08:26;38.35;;;20.77;;
48813;SDS011;34634;44.108;3.074;2023-03-01T07:10:55;41.55;;;25.17;;
48813;SDS011;34634;44.108;3.074;2023-03-01T07:13:22;34.35;;;22.55;;
48813;SDS011;34634;44.108;3.074;2023-03-01T07:15:48;40.17;;;24.33;;
48813;SDS011;34634;44.108;3.074;2023-03-01T07:18:14;36.50;;;22.38;;
48813;SDS011;34634;44.108;3.074;2023-03-01T07:20:41;30.67;;;21.38;;
48813;SDS011;34634;44.108;3.074;2023-03-01T07:23:07;28.50;;;18.38;;
48813;SDS011;34634;44.108;3.074;2023-03-01T07:25:33;20.65;;;14.05;;
48813;SDS011;34634;44.108;3.074;2023-03-01T07:28:00;15.00;;;11.25;;
48813;SDS011;34634;44.108;3.074;2023-03-01T07:30:26;17.63;;;12.43;;
48813;SDS011;34634;44.108;3.074;2023-03-01T07:32:54;20.10;;;13.40;;
48813;SDS011;34634;44.108;3.074;2023-03-01T07:35:20;16.67;;;11.60;;
48813;SDS011;34634;44.108;3.074;2023-03-01T07:37:46;21.88;;;12.98;;
48813;SDS011;34634;44.108;3.074;2023-03-01T07:40:13;17.45;;;11.38;;
48813;SDS011;34634;44.108;3.074;2023-03-01T07:42:39;14.90;;;10.68;;
48813;SDS011;34634;44.108;3.074;2023-03-01T07:45:06;14.65;;;10.57;;
48813;SDS011;34634;44.108;3.074;2023-03-01T07:47:32;19.88;;;13.27;;
48813;SDS011;34634;44.108;3.074;2023-03-01T07:49:59;17.58;;;12.55;;
48813;SDS011;34634;44.108;3.074;2023-03-01T07:52:26;16.85;;;11.68;;
48813;SDS011;34634;44.108;3.074;2023-03-01T07:54:52;23.58;;;13.20;;
48813;SDS011;34634;44.108;3.074;2023-03-01T07:57:19;23.67;;;13.27;;
48813;SDS011;34634;44.108;3.074;2023-03-01T07:59:45;23.17;;;14.45;;
48813;SDS011;34634;44.108;3.074;2023-03-01T08:02:11;20.08;;;13.75;;
48813;SDS011;34634;44.108;3.074;2023-03-01T08:04:38;18.55;;;12.38;;
48813;SDS011;34634;44.108;3.074;2023-03-01T08:07:04;16.30;;;11.65;;
48813;SDS011;34634;44.108;3.074;2023-03-01T08:09:31;16.77;;;11.52;;
48813;SDS011;34634;44.108;3.074;2023-03-01T08:11:57;15.10;;;11.00;;
48813;SDS011;34634;44.108;3.074;2023-03-01T08:14:25;17.63;;;11.85;;
48813;SDS011;34634;44.108;3.074;2023-03-01T08:16:51;17.85;;;11.05;;
48813;SDS011;34634;44.108;3.074;2023-03-01T08:19:17;16.15;;;11.32;;
48813;SDS011;34634;44.108;3.074;2023-03-01T08:21:43;16.10;;;11.07;;
48813;SDS011;34634;44.108;3.074;2023-03-01T08:24:10;18.63;;;11.65;;
48813;SDS011;34634;44.108;3.074;2023-03-01T08:26:36;28.23;;;16.30;;
48813;SDS011;34634;44.108;3.074;2023-03-01T08:29:03;14.20;;;10.50;;
48813;SDS011;34634;44.108;3.074;2023-03-01T08:31:33;15.98;;;8.93;;
48813;SDS011;34634;44.108;3.074;2023-03-01T08:34:05;13.77;;;9.43;;
48813;SDS011;34634;44.108;3.074;2023-03-01T08:36:34;11.85;;;9.05;;
48813;SDS011;34634;44.108;3.074;2023-03-01T08:39:01;11.68;;;9.27;;
48813;SDS011;34634;44.108;3.074;2023-03-01T08:41:27;10.68;;;9.13;;
48813;SDS011;34634;44.108;3.074;2023-03-01T08:43:54;10.85;;;8.63;;
48813;SDS011;34634;44.108;3.074;2023-03-01T08:46:32;9.93;;;8.70;;
48813;SDS011;34634;44.108;3.074;2023-03-01T08:48:59;10.93;;;8.25;;
48813;SDS011;34634;44.108;3.074;2023-03-01T08:51:25;10.75;;;8.40;;
48813;SDS011;34634;44.108;3.074;2023-03-01T08:53:57;10.70;;;8.07;;
48813;SDS011;34634;44.108;3.074;2023-03-01T08:56:23;9.27;;;8.23;;
48813;SDS011;34634;44.108;3.074;2023-03-01T08:58:49;9.63;;;8.45;;
48813;SDS011;34634;44.108;3.074;2023-03-01T09:01:17;12.70;;;9.55;;
48813;SDS011;34634;44.108;3.074;2023-03-01T09:03:43;9.75;;;7.70;;
48813;SDS011;34634;44.108;3.074;2023-03-01T09:06:11;12.38;;;8.15;;
48813;SDS011;34634;44.108;3.074;2023-03-01T09:08:38;9.32;;;8.05;;
48813;SDS011;34634;44.108;3.074;2023-03-01T09:11:05;10.45;;;8.48;;
48813;SDS011;34634;44.108;3.074;2023-03-01T09:13:32;9.20;;;8.18;;
48813;SDS011;34634;44.108;3.074;2023-03-01T09:15:59;11.30;;;8.70;;
48813;SDS011;34634;44.108;3.074;2023-03-01T09:18:26;9.35;;;7.75;;
48813;SDS011;34634;44.108;3.074;2023-03-01T09:20:53;11.60;;;8.55;;
48813;SDS011;34634;44.108;3.074;2023-03-01T09:23:20;8.90;;;8.02;;
48813;SDS011;34634;44.108;3.074;2023-03-01T09:25:47;11.07;;;8.45;;
48813;SDS011;34634;44.108;3.074;2023-03-01T09:28:13;9.45;;;8.07;;
48813;SDS011;34634;44.108;3.074;2023-03-01T09:30:39;8.98;;;7.72;;
48813;SDS011;34634;44.108;3.074;2023-03-01T09:33:05;8.70;;;7.80;;
48813;SDS011;34634;44.108;3.074;2023-03-01T09:35:32;9.40;;;7.88;;
48813;SDS011;34634;44.108;3.074;2023-03-01T09:37:58;8.65;;;7.85;;
48813;SDS011;34634;44.108;3.074;2023-03-01T09:40:25;9.32;;;8.30;;
48813;SDS011;34634;44.108;3.074;2023-03-01T09:45:52;10.43;;;8.27;;
48813;SDS011;34634;44.108;3.074;2023-03-01T09:48:13;11.63;;;8.85;;
48813;SDS011;34634;44.108;3.074;2023-03-01T09:50:41;8.85;;;7.93;;
48813;SDS011;34634;44.108;3.074;2023-03-01T09:53:10;10.18;;;9.13;;
48813;SDS011;34634;44.108;3.074;2023-03-01T10:00:46;8.95;;;8.05;;
48813;SDS011;34634;44.108;3.074;2023-03-01T10:03:17;9.32;;;8.25;;
48813;SDS011;34634;44.108;3.074;2023-03-01T10:10:50;10.65;;;8.73;;
48813;SDS011;34634;44.108;3.074;2023-03-01T10:13:26;9.73;;;8.68;;
48813;SDS011;34634;44.108;3.074;2023-03-01T10:15:55;8.52;;;7.63;;
48813;SDS011;34634;44.108;3.074;2023-03-01T10:18:24;10.40;;;8.63;;
48813;SDS011;34634;44.108;3.074;2023-03-01T10:20:59;9.23;;;8.25;;
48813;SDS011;34634;44.108;3.074;2023-03-01T10:23:26;9.52;;;8.18;;
48813;SDS011;34634;44.108;3.074;2023-03-01T10:26:01;12.32;;;8.52;;
48813;SDS011;34634;44.108;3.074;2023-03-01T10:29:14;9.23;;;8.05;;
48813;SDS011;34634;44.108;3.074;2023-03-01T10:31:25;10.20;;;7.97;;
48813;SDS011;34634;44.108;3.074;2023-03-01T10:33:53;9.65;;;7.93;;
48813;SDS011;34634;44.108;3.074;2023-03-01T10:36:22;8.60;;;7.53;;
48813;SDS011;34634;44.108;3.074;2023-03-01T10:41:17;9.30;;;8.00;;
48813;SDS011;34634;44.108;3.074;2023-03-01T10:43:46;11.70;;;8.70;;
48813;SDS011;34634;44.108;3.074;2023-03-01T10:46:23;10.50;;;8.90;;
48813;SDS011;34634;44.108;3.074;2023-03-01T10:49:23;8.80;;;7.40;;
48813;SDS011;34634;44.108;3.074;2023-03-01T10:51:43;8.20;;;7.40;;
48813;SDS011;34634;44.108;3.074;2023-03-01T10:54:16;8.02;;;7.00;;
48813;SDS011;34634;44.108;3.074;2023-03-01T10:56:47;9.00;;;7.80;;
48813;SDS011;34634;44.108;3.074;2023-03-01T11:04:30;8.45;;;7.18;;
48813;SDS011;34634;44.108;3.074;2023-03-01T11:06:57;8.43;;;7.50;;
48813;SDS011;34634;44.108;3.074;2023-03-01T11:09:24;8.75;;;7.50;;
48813;SDS011;34634;44.108;3.074;2023-03-01T11:11:53;8.57;;;7.00;;
48813;SDS011;34634;44.108;3.074;2023-03-01T11:14:27;8.85;;;7.20;;
48813;SDS011;34634;44.108;3.074;2023-03-01T11:19:38;7.63;;;6.82;;
48813;SDS011;34634;44.108;3.074;2023-03-01T11:22:12;11.82;;;8.50;;
48813;SDS011;34634;44.108;3.074;2023-03-01T11:27:08;10.70;;;8.70;;
48813;SDS011;34634;44.108;3.074;2023-03-01T11:32:23;8.40;;;7.15;;
48813;SDS011;34634;44.108;3.074;2023-03-01T11:34:53;26.58;;;16.42;;
48813;SDS011;34634;44.108;3.074;2023-03-01T11:37:28;9.93;;;8.40;;
48813;SDS011;34634;44.108;3.074;2023-03-01T11:40:01;12.80;;;10.02;;
48813;SDS011;34634;44.108;3.074;2023-03-01T11:45:12;12.27;;;9.88;;
48813;SDS011;34634;44.108;3.074;2023-03-01T11:48:00;9.52;;;8.27;;
48813;SDS011;34634;44.108;3.074;2023-03-01T11:50:28;11.65;;;9.25;;
48813;SDS011;34634;44.108;3.074;2023-03-01T11:52:59;9.23;;;7.65;;
48813;SDS011;34634;44.108;3.074;2023-03-01T11:58:19;9.38;;;7.90;;
48813;SDS011;34634;44.108;3.074;2023-03-01T12:10:49;8.20;;;7.22;;
48813;SDS011;34634;44.108;3.074;2023-03-01T12:15:51;7.75;;;6.95;;
48813;SDS011;34634;44.108;3.074;2023-03-01T12:18:30;7.82;;;7.07;;
48813;SDS011;34634;44.108;3.074;2023-03-01T12:26:31;7.53;;;6.80;;
48813;SDS011;34634;44.108;3.074;2023-03-01T12:31:40;7.93;;;7.13;;
48813;SDS011;34634;44.108;3.074;2023-03-01T12:34:19;7.75;;;7.05;;
48813;SDS011;34634;44.108;3.074;2023-03-01T12:39:40;8.45;;;6.88;;
48813;SDS011;34634;44.108;3.074;2023-03-01T12:49:57;7.50;;;6.80;;
48813;SDS011;34634;44.108;3.074;2023-03-01T12:54:54;9.48;;;6.63;;
48813;SDS011;34634;44.108;3.074;2023-03-01T13:05:06;8.15;;;7.45;;
48813;SDS011;34634;44.108;3.074;2023-03-01T13:07:44;7.63;;;6.93;;
48813;SDS011;34634;44.108;3.074;2023-03-01T13:10:26;7.50;;;6.80;;
48813;SDS011;34634;44.108;3.074;2023-03-01T13:17:48;9.20;;;6.93;;
48813;SDS011;34634;44.108;3.074;2023-03-01T13:20:16;7.82;;;7.03;;
48813;SDS011;34634;44.108;3.074;2023-03-01T13:22:43;10.90;;;6.95;;
48813;SDS011;34634;44.108;3.074;2023-03-01T13:25:12;7.53;;;6.82;;
48813;SDS011;34634;44.108;3.074;2023-03-01T13:27:39;8.32;;;6.80;;
48813;SDS011;34634;44.108;3.074;2023-03-01T13:30:12;7.20;;;6.50;;
48813;SDS011;34634;44.108;3.074;2023-03-01T13:32:51;7.72;;;7.03;;
48813;SDS011;34634;44.108;3.074;2023-03-01T13:37:44;7.60;;;6.90;;
48813;SDS011;34634;44.108;3.074;2023-03-01T13:42:44;8.88;;;7.90;;
48813;SDS011;34634;44.108;3.074;2023-03-01T13:45:19;9.90;;;7.97;;
48813;SDS011;34634;44.108;3.074;2023-03-01T13:47:47;8.73;;;7.90;;
48813;SDS011;34634;44.108;3.074;2023-03-01T13:50:20;9.40;;;8.30;;
48813;SDS011;34634;44.108;3.074;2023-03-01T13:52:50;11.65;;;10.55;;
48813;SDS011;34634;44.108;3.074;2023-03-01T13:55:19;8.93;;;7.70;;
48813;SDS011;34634;44.108;3.074;2023-03-01T13:57:48;8.70;;;7.85;;
48813;SDS011;34634;44.108;3.074;2023-03-01T14:03:01;8.68;;;7.53;;
48813;SDS011;34634;44.108;3.074;2023-03-01T14:05:29;7.90;;;7.10;;
48813;SDS011;34634;44.108;3.074;2023-03-01T14:07:56;8.27;;;7.47;;
48813;SDS011;34634;44.108;3.074;2023-03-01T14:10:22;8.27;;;7.45;;
48813;SDS011;34634;44.108;3.074;2023-03-01T14:12:58;12.77;;;9.77;;
48813;SDS011;34634;44.108;3.074;2023-03-01T14:15:29;8.45;;;7.60;;
48813;SDS011;34634;44.108;3.074;2023-03-01T14:20:39;9.07;;;7.78;;
48813;SDS011;34634;44.108;3.074;2023-03-01T14:23:13;10.20;;;9.15;;
48813;SDS011;34634;44.108;3.074;2023-03-01T14:25:45;8.75;;;7.90;;
48813;SDS011;34634;44.108;3.074;2023-03-01T14:30:49;9.93;;;8.93;;
48813;SDS011;34634;44.108;3.074;2023-03-01T14:36:04;8.82;;;7.93;;
48813;SDS011;34634;44.108;3.074;2023-03-01T14:41:36;8.75;;;7.85;;
48813;SDS011;34634;44.108;3.074;2023-03-01T14:43:57;8.45;;;7.57;;
48813;SDS011;34634;44.108;3.074;2023-03-01T14:46:33;12.00;;;8.63;;
48813;SDS011;34634;44.108;3.074;2023-03-01T14:51:34;8.05;;;7.10;;
48813;SDS011;34634;44.108;3.074;2023-03-01T14:54:01;9.27;;;7.80;;
48813;SDS011;34634;44.108;3.074;2023-03-01T14:56:27;9.70;;;8.48;;
48813;SDS011;34634;44.108;3.074;2023-03-01T14:59:09;9.27;;;8.38;;
48813;SDS011;34634;44.108;3.074;2023-03-01T15:01:35;9.00;;;8.05;;
48813;SDS011;34634;44.108;3.074;2023-03-01T15:04:01;9.95;;;8.02;;
48813;SDS011;34634;44.108;3.074;2023-03-01T15:06:28;9.85;;;8.30;;
48813;SDS011;34634;44.108;3.074;2023-03-01T15:08:55;9.52;;;8.52;;
48813;SDS011;34634;44.108;3.074;2023-03-01T15:11:23;10.73;;;8.88;;
48813;SDS011;34634;44.108;3.074;2023-03-01T15:13:50;10.45;;;8.77;;
48813;SDS011;34634;44.108;3.074;2023-03-01T15:16:30;9.63;;;7.78;;
48813;SDS011;34634;44.108;3.074;2023-03-01T15:21:27;10.73;;;8.65;;
48813;SDS011;34634;44.108;3.074;2023-03-01T15:23:55;12.95;;;10.73;;
48813;SDS011;34634;44.108;3.074;2023-03-01T15:26:26;13.55;;;10.80;;
48813;SDS011;34634;44.108;3.074;2023-03-01T15:28:54;13.80;;;11.10;;
48813;SDS011;34634;44.108;3.074;2023-03-01T15:31:24;16.75;;;12.27;;
48813;SDS011;34634;44.108;3.074;2023-03-01T15:33:51;11.77;;;9.73;;
48813;SDS011;34634;44.108;3.074;2023-03-01T15:38:57;10.23;;;8.55;;
48813;SDS011;34634;44.108;3.074;2023-03-01T15:41:58;12.85;;;10.43;;
48813;SDS011;34634;44.108;3.074;2023-03-01T15:44:23;13.85;;;11.00;;
48813;SDS011;34634;44.108;3.074;2023-03-01T15:46:51;13.95;;;9.40;;
48813;SDS011;34634;44.108;3.074;2023-03-01T15:52:03;10.10;;;8.27;;
48813;SDS011;34634;44.108;3.074;2023-03-01T15:54:29;11.98;;;8.82;;
48813;SDS011;34634;44.108;3.074;2023-03-01T15:56:55;10.93;;;8.75;;
48813;SDS011;34634;44.108;3.074;2023-03-01T15:59:22;15.10;;;10.15;;
48813;SDS011;34634;44.108;3.074;2023-03-01T16:01:48;13.32;;;10.15;;
48813;SDS011;34634;44.108;3.074;2023-03-01T16:04:16;11.20;;;9.35;;
48813;SDS011;34634;44.108;3.074;2023-03-01T16:06:48;10.82;;;9.23;;
48813;SDS011;34634;44.108;3.074;2023-03-01T16:09:23;12.10;;;9.23;;
48813;SDS011;34634;44.108;3.074;2023-03-01T16:11:50;12.80;;;9.90;;
48813;SDS011;34634;44.108;3.074;2023-03-01T16:14:16;12.48;;;8.82;;
48813;SDS011;34634;44.108;3.074;2023-03-01T16:16:43;13.45;;;9.43;;
48813;SDS011;34634;44.108;3.074;2023-03-01T16:19:09;11.07;;;9.18;;
48813;SDS011;34634;44.108;3.074;2023-03-01T16:21:36;10.13;;;8.88;;
48813;SDS011;34634;44.108;3.074;2023-03-01T16:24:03;15.82;;;11.90;;
48813;SDS011;34634;44.108;3.074;2023-03-01T16:26:29;50.42;;;31.85;;
48813;SDS011;34634;44.108;3.074;2023-03-01T16:28:56;14.10;;;10.32;;
48813;SDS011;34634;44.108;3.074;2023-03-01T16:31:23;42.28;;;24.77;;
48813;SDS011;34634;44.108;3.074;2023-03-01T16:33:53;17.00;;;12.40;;
48813;SDS011;34634;44.108;3.074;2023-03-01T16:36:20;15.88;;;12.00;;
48813;SDS011;34634;44.108;3.074;2023-03-01T16:38:49;13.55;;;10.95;;
48813;SDS011;34634;44.108;3.074;2023-03-01T16:41:16;17.63;;;13.18;;